createdAt,value
2023-03-23T15:58:41.994Z,2.00
2023-03-23T16:01:18.233Z,2.10
2023-03-23T16:03:53.205Z,2.90
2023-03-23T16:06:26.800Z,2.90
2023-03-23T16:08:58.066Z,3.00
2023-03-23T16:11:31.146Z,3.30
2023-03-23T16:14:02.746Z,2.90
2023-03-23T16:16:36.519Z,3.00
2023-03-23T16:19:07.502Z,4.10
2023-03-23T16:21:37.866Z,4.10
2023-03-23T16:24:09.311Z,5.00
2023-03-23T16:26:41.051Z,3.90
2023-03-23T16:29:33.758Z,2.80
2023-03-23T16:32:07.639Z,2.10
2023-03-23T16:34:38.395Z,2.30
2023-03-23T16:37:10.452Z,2.20
2023-03-23T16:39:40.768Z,1.90
2023-03-23T16:42:11.039Z,2.40
2023-03-23T16:44:41.680Z,2.10
2023-03-23T16:47:12.061Z,2.20
2023-03-23T16:49:43.269Z,2.00
2023-03-23T16:52:13.675Z,2.00
2023-03-23T16:54:44.133Z,3.00
2023-03-23T16:57:14.680Z,3.20
2023-03-23T16:59:45.023Z,3.50
2023-03-23T17:02:15.493Z,2.90
2023-03-23T17:04:47.820Z,3.50
2023-03-23T17:07:18.162Z,3.30
2023-03-23T17:09:48.517Z,3.80
2023-03-23T17:12:18.870Z,3.90
2023-03-23T17:14:49.331Z,4.40
2023-03-23T17:17:20.381Z,3.50
2023-03-23T17:19:51.781Z,3.50
2023-03-23T17:22:22.363Z,10.90
2023-03-23T17:24:52.750Z,19.70
2023-03-23T17:27:24.931Z,34.40
2023-03-23T17:29:56.413Z,14.60
2023-03-23T17:32:27.171Z,4.80
2023-03-23T17:34:57.504Z,3.30
2023-03-23T17:37:27.797Z,2.50
2023-03-23T17:39:58.212Z,2.20
2023-03-23T17:42:28.931Z,2.40
2023-03-23T17:44:59.303Z,2.60
2023-03-23T17:47:29.724Z,2.40
2023-03-23T17:50:00.128Z,2.80
2023-03-23T17:52:43.589Z,2.80
2023-03-23T17:55:14.462Z,2.90
2023-03-23T17:57:45.631Z,2.70
2023-03-23T18:00:18.490Z,3.00
2023-03-23T18:02:48.933Z,3.40
2023-03-23T18:05:19.488Z,3.40
2023-03-23T18:07:50.108Z,3.50
2023-03-23T18:10:20.943Z,3.50
2023-03-23T18:12:52.837Z,3.30
2023-03-23T18:15:28.517Z,3.10
2023-03-23T18:18:00.537Z,3.10
2023-03-23T18:20:30.981Z,3.50
2023-03-23T18:23:03.560Z,3.20
2023-03-23T18:25:34.055Z,3.30
2023-03-23T18:28:05.397Z,3.40
2023-03-23T18:30:37.461Z,3.30
2023-03-23T18:33:07.941Z,3.40
2023-03-23T18:35:38.281Z,3.30
2023-03-23T18:38:08.695Z,3.00
2023-03-23T18:40:43.031Z,3.10
2023-03-23T18:43:13.923Z,3.20
2023-03-23T18:45:49.231Z,3.40
2023-03-23T18:48:19.730Z,3.00
2023-03-23T18:50:51.693Z,4.10
2023-03-23T18:53:23.519Z,3.00
2023-03-23T18:55:54.428Z,3.00
2023-03-23T18:58:24.747Z,3.40
2023-03-23T19:00:58.832Z,3.30
2023-03-23T19:03:29.426Z,3.10
2023-03-23T19:06:02.305Z,3.60
2023-03-23T19:08:33.029Z,4.00
2023-03-23T19:11:05.906Z,3.70
2023-03-23T19:13:38.803Z,3.80
2023-03-23T19:16:11.115Z,4.20
2023-03-23T19:18:41.792Z,4.10
2023-03-23T19:21:15.667Z,3.80
2023-03-23T19:23:49.452Z,3.60
2023-03-23T19:26:25.123Z,3.50
2023-03-23T19:29:24.722Z,3.80
2023-03-23T19:31:46.592Z,3.20
2023-03-23T19:34:18.086Z,4.20
2023-03-23T19:36:55.249Z,4.10
2023-03-23T19:39:29.957Z,4.30
2023-03-23T19:42:00.849Z,4.60
2023-03-23T19:44:31.212Z,4.90
2023-03-23T19:47:02.050Z,5.20
2023-03-23T19:49:32.718Z,5.20
2023-03-23T19:52:09.398Z,5.10
2023-03-23T19:54:42.868Z,5.20
2023-03-23T19:57:14.117Z,4.70
2023-03-23T19:59:44.829Z,4.50
2023-03-23T20:02:15.562Z,5.10
2023-03-23T20:04:46.567Z,5.30
2023-03-23T20:07:17.049Z,4.40
2023-03-23T20:09:48.540Z,4.50
2023-03-23T20:12:19.161Z,4.40
2023-03-23T20:14:51.077Z,4.30
2023-03-23T20:17:21.823Z,4.00
2023-03-23T20:19:52.245Z,4.60
2023-03-23T20:22:22.703Z,3.70
2023-03-23T20:24:53.007Z,4.00
2023-03-23T20:27:23.404Z,4.20
2023-03-23T20:29:55.389Z,4.20
2023-03-23T20:32:25.869Z,3.50
2023-03-23T20:34:57.143Z,3.80
2023-03-23T20:37:29.915Z,4.30
2023-03-23T20:40:02.056Z,3.80
2023-03-23T20:42:33.531Z,4.30
2023-03-23T20:45:05.073Z,4.50
2023-03-23T20:47:35.472Z,4.60
2023-03-23T20:50:07.412Z,4.30
2023-03-23T20:52:40.106Z,4.40
2023-03-23T20:55:11.615Z,4.60
2023-03-23T20:57:42.297Z,4.10
2023-03-23T21:00:16.457Z,4.30
2023-03-23T21:02:49.766Z,4.30
2023-03-23T21:05:20.505Z,4.10
2023-03-23T21:07:51.097Z,4.70
2023-03-23T21:10:25.698Z,5.30
2023-03-23T21:12:57.302Z,4.40
2023-03-23T21:15:27.995Z,4.20
2023-03-23T21:17:58.662Z,4.40
2023-03-23T21:20:29.427Z,4.40
2023-03-23T21:23:00.157Z,4.60
2023-03-23T21:25:33.965Z,5.20
2023-03-23T21:28:06.698Z,5.40
2023-03-23T21:30:37.045Z,5.10
2023-03-23T21:33:08.563Z,5.10
2023-03-23T21:35:39.107Z,5.70
2023-03-23T21:38:14.304Z,4.70
2023-03-23T21:40:45.579Z,4.40
2023-03-23T21:43:17.321Z,4.70
2023-03-23T21:45:48.132Z,4.40
2023-03-23T21:48:18.425Z,4.60
2023-03-23T21:50:49.137Z,4.40
2023-03-23T21:53:20.432Z,3.70
2023-03-23T21:55:52.473Z,4.70
2023-03-23T21:58:26.822Z,5.00
2023-03-23T22:00:59.178Z,4.50
2023-03-23T22:03:32.330Z,4.40
2023-03-23T22:06:10.429Z,4.70
2023-03-23T22:08:42.835Z,4.30
2023-03-23T22:11:17.370Z,4.50
2023-03-23T22:13:48.979Z,4.20
2023-03-23T22:16:21.216Z,4.30
2023-03-23T22:18:53.183Z,4.10
2023-03-23T22:21:25.938Z,4.10
2023-03-23T22:23:58.929Z,3.80
2023-03-23T22:26:31.245Z,3.70
2023-03-23T22:29:03.074Z,4.90
2023-03-23T22:31:36.442Z,3.80
2023-03-23T22:34:07.453Z,3.60
2023-03-23T22:36:38.958Z,5.70
2023-03-23T22:39:10.219Z,3.80
2023-03-23T22:41:42.760Z,3.60
2023-03-23T22:44:18.080Z,3.90
2023-03-23T22:46:48.499Z,4.00
2023-03-23T22:49:18.838Z,3.70
2023-03-23T22:51:49.269Z,3.70
2023-03-23T22:54:19.653Z,3.50
2023-03-23T22:56:50.025Z,3.20
2023-03-23T22:59:21.124Z,3.50
2023-03-23T23:01:51.436Z,3.30
2023-03-23T23:04:21.869Z,3.10
2023-03-23T23:07:00.184Z,2.90
2023-03-23T23:09:37.065Z,2.70
2023-03-23T23:12:08.460Z,2.80
2023-03-23T23:14:39.886Z,2.90
2023-03-23T23:17:10.216Z,3.00
2023-03-23T23:19:40.572Z,2.60
2023-03-23T23:22:18.878Z,2.20
2023-03-23T23:24:49.880Z,2.50
2023-03-23T23:27:20.612Z,2.40
2023-03-23T23:29:50.982Z,2.80
2023-03-23T23:32:21.412Z,2.40
2023-03-23T23:34:53.016Z,2.70
2023-03-23T23:37:23.442Z,2.50
2023-03-23T23:39:53.812Z,2.30
2023-03-23T23:42:25.655Z,2.50
2023-03-23T23:44:56.064Z,2.30
2023-03-23T23:47:26.276Z,2.60
2023-03-23T23:49:56.937Z,2.30
2023-03-23T23:52:27.256Z,2.80
2023-03-23T23:54:57.560Z,2.60
2023-03-23T23:57:28.978Z,2.50
2023-03-23T23:59:59.294Z,2.30
